sensor_id;sensor_type;location;lat;lon;timestamp;pressure;altitude;pressure_sealevel;temperature;humidity
21240;BME280;10778;48.962;9.018;2022-11-20T00:00:37;98645.19;;;2.63;100.00
21240;BME280;10778;48.962;9.018;2022-11-20T00:03:03;98646.31;;;2.59;100.00
21240;BME280;10778;48.962;9.018;2022-11-20T00:05:32;98648.22;;;2.69;100.00
21240;BME280;10778;48.962;9.018;2022-11-20T00:07:58;98640.78;;;2.78;100.00
21240;BME280;10778;48.962;9.018;2022-11-20T00:10:24;98635.38;;;2.81;100.00
21240;BME280;10778;48.962;9.018;2022-11-20T00:12:50;98636.31;;;2.80;100.00
21240;BME280;10778;48.962;9.018;2022-11-20T00:15:16;98643.75;;;2.72;100.00
21240;BME280;10778;48.962;9.018;2022-11-20T00:17:42;98638.91;;;2.80;100.00
21240;BME280;10778;48.962;9.018;2022-11-20T00:20:09;98633.94;;;2.90;100.00
21240;BME280;10778;48.962;9.018;2022-11-20T00:22:35;98632.59;;;2.97;100.00
21240;BME280;10778;48.962;9.018;2022-11-20T00:25:01;98639.38;;;2.99;100.00
21240;BME280;10778;48.962;9.018;2022-11-20T00:27:27;98632.22;;;3.03;100.00
21240;BME280;10778;48.962;9.018;2022-11-20T00:29:53;98633.59;;;3.09;100.00
21240;BME280;10778;48.962;9.018;2022-11-20T00:32:19;98630.00;;;2.97;100.00
21240;BME280;10778;48.962;9.018;2022-11-20T00:34:45;98626.59;;;3.09;100.00
21240;BME280;10778;48.962;9.018;2022-11-20T00:37:11;98635.09;;;2.98;100.00
21240;BME280;10778;48.962;9.018;2022-11-20T00:39:37;98627.53;;;2.95;100.00
21240;BME280;10778;48.962;9.018;2022-11-20T00:42:03;98630.97;;;3.09;100.00
21240;BME280;10778;48.962;9.018;2022-11-20T00:44:29;98633.97;;;3.03;100.00
21240;BME280;10778;48.962;9.018;2022-11-20T00:46:55;98631.88;;;3.08;100.00
21240;BME280;10778;48.962;9.018;2022-11-20T00:49:21;98634.59;;;3.06;100.00
21240;BME280;10778;48.962;9.018;2022-11-20T00:51:48;98635.41;;;3.07;100.00
21240;BME280;10778;48.962;9.018;2022-11-20T00:54:14;98637.63;;;3.00;100.00
21240;BME280;10778;48.962;9.018;2022-11-20T00:56:40;98643.00;;;2.97;100.00
21240;BME280;10778;48.962;9.018;2022-11-20T00:59:06;98641.03;;;3.01;100.00
21240;BME280;10778;48.962;9.018;2022-11-20T01:01:34;98632.81;;;2.94;100.00
21240;BME280;10778;48.962;9.018;2022-11-20T01:04:00;98635.53;;;2.92;100.00
21240;BME280;10778;48.962;9.018;2022-11-20T01:06:30;98632.81;;;2.94;100.00
21240;BME280;10778;48.962;9.018;2022-11-20T01:08:58;98642.25;;;2.95;100.00
21240;BME280;10778;48.962;9.018;2022-11-20T01:11:27;98635.94;;;2.99;100.00
21240;BME280;10778;48.962;9.018;2022-11-20T01:13:55;98640.50;;;2.95;100.00
21240;BME280;10778;48.962;9.018;2022-11-20T01:16:27;98643.63;;;3.01;100.00
21240;BME280;10778;48.962;9.018;2022-11-20T01:18:56;98641.88;;;3.01;100.00
21240;BME280;10778;48.962;9.018;2022-11-20T01:21:28;98643.72;;;2.99;100.00
21240;BME280;10778;48.962;9.018;2022-11-20T01:23:55;98652.56;;;2.96;100.00
21240;BME280;10778;48.962;9.018;2022-11-20T01:26:24;98654.03;;;3.01;100.00
21240;BME280;10778;48.962;9.018;2022-11-20T01:28:51;98647.91;;;3.02;100.00
21240;BME280;10778;48.962;9.018;2022-11-20T01:31:20;98643.63;;;3.01;100.00
21240;BME280;10778;48.962;9.018;2022-11-20T01:33:49;98654.47;;;3.07;100.00
21240;BME280;10778;48.962;9.018;2022-11-20T01:36:17;98647.69;;;3.05;100.00
21240;BME280;10778;48.962;9.018;2022-11-20T01:38:43;98644.38;;;3.03;100.00
21240;BME280;10778;48.962;9.018;2022-11-20T01:41:10;98638.97;;;3.06;100.00
21240;BME280;10778;48.962;9.018;2022-11-20T01:43:57;98641.38;;;3.09;100.00
21240;BME280;10778;48.962;9.018;2022-11-20T01:46:23;98642.09;;;3.11;100.00
21240;BME280;10778;48.962;9.018;2022-11-20T01:54:25;98642.84;;;3.13;100.00
21240;BME280;10778;48.962;9.018;2022-11-20T01:56:55;98639.81;;;3.19;100.00
21240;BME280;10778;48.962;9.018;2022-11-20T01:59:23;98638.25;;;3.17;100.00
21240;BME280;10778;48.962;9.018;2022-11-20T02:01:51;98633.78;;;3.19;100.00
21240;BME280;10778;48.962;9.018;2022-11-20T02:04:18;98630.97;;;3.22;100.00
21240;BME280;10778;48.962;9.018;2022-11-20T02:06:48;98625.25;;;3.17;100.00
21240;BME280;10778;48.962;9.018;2022-11-20T02:09:16;98625.25;;;3.17;100.00
21240;BME280;10778;48.962;9.018;2022-11-20T02:11:42;98628.59;;;3.19;100.00
21240;BME280;10778;48.962;9.018;2022-11-20T02:14:08;98618.06;;;3.20;100.00
21240;BME280;10778;48.962;9.018;2022-11-20T02:16:37;98621.09;;;3.27;100.00
21240;BME280;10778;48.962;9.018;2022-11-20T02:19:09;98624.44;;;3.29;100.00
21240;BME280;10778;48.962;9.018;2022-11-20T02:21:47;98625.28;;;3.30;100.00
21240;BME280;10778;48.962;9.018;2022-11-20T02:24:18;98627.03;;;3.29;100.00
21240;BME280;10778;48.962;9.018;2022-11-20T02:26:50;98627.75;;;3.31;100.00
21240;BME280;10778;48.962;9.018;2022-11-20T02:30:07;98631.84;;;3.35;100.00
21240;BME280;10778;48.962;9.018;2022-11-20T02:32:21;98624.53;;;3.40;100.00
21240;BME280;10778;48.962;9.018;2022-11-20T02:34:47;98623.28;;;3.46;100.00
21240;BME280;10778;48.962;9.018;2022-11-20T02:37:14;98620.28;;;3.52;100.00
21240;BME280;10778;48.962;9.018;2022-11-20T02:39:40;98621.13;;;3.53;100.00
21240;BME280;10778;48.962;9.018;2022-11-20T02:42:07;98627.03;;;3.55;100.00
21240;BME280;10778;48.962;9.018;2022-11-20T02:44:33;98625.16;;;3.57;100.00
21240;BME280;10778;48.962;9.018;2022-11-20T02:46:59;98627.75;;;3.57;100.00
21240;BME280;10778;48.962;9.018;2022-11-20T02:49:25;98621.31;;;3.63;100.00
21240;BME280;10778;48.962;9.018;2022-11-20T02:51:51;98623.78;;;3.64;100.00
21240;BME280;10778;48.962;9.018;2022-11-20T02:54:17;98620.78;;;3.70;100.00
21240;BME280;10778;48.962;9.018;2022-11-20T02:56:43;98616.41;;;3.71;100.00
21240;BME280;10778;48.962;9.018;2022-11-20T02:59:10;98617.75;;;3.77;100.00
21240;BME280;10778;48.962;9.018;2022-11-20T03:01:36;98615.56;;;3.83;100.00
21240;BME280;10778;48.962;9.018;2022-11-20T03:04:02;98610.97;;;3.87;100.00
21240;BME280;10778;48.962;9.018;2022-11-20T03:06:28;98604.81;;;3.88;100.00
21240;BME280;10778;48.962;9.018;2022-11-20T03:08:54;98613.22;;;3.92;100.00
21240;BME280;10778;48.962;9.018;2022-11-20T03:11:20;98606.91;;;3.83;100.00
21240;BME280;10778;48.962;9.018;2022-11-20T03:13:46;98603.78;;;3.78;100.00
21240;BME280;10778;48.962;9.018;2022-11-20T03:16:15;98605.59;;;3.77;100.00
21240;BME280;10778;48.962;9.018;2022-11-20T03:18:42;98602.53;;;3.83;100.00
21240;BME280;10778;48.962;9.018;2022-11-20T03:21:10;98606.31;;;3.79;100.00
21240;BME280;10778;48.962;9.018;2022-11-20T03:23:36;98605.25;;;3.82;100.00
21240;BME280;10778;48.962;9.018;2022-11-20T03:26:13;98597.56;;;3.80;100.00
21240;BME280;10778;48.962;9.018;2022-11-20T03:28:41;98605.16;;;3.83;100.00
21240;BME280;10778;48.962;9.018;2022-11-20T03:31:13;98600.38;;;3.77;100.00
21240;BME280;10778;48.962;9.018;2022-11-20T03:33:40;98597.44;;;3.82;100.00
21240;BME280;10778;48.962;9.018;2022-11-20T03:36:12;98598.91;;;3.86;100.00
21240;BME280;10778;48.962;9.018;2022-11-20T03:38:40;98600.56;;;3.87;100.00
21240;BME280;10778;48.962;9.018;2022-11-20T03:41:14;98602.09;;;3.90;100.00
21240;BME280;10778;48.962;9.018;2022-11-20T03:43:40;98591.47;;;3.93;100.00
21240;BME280;10778;48.962;9.018;2022-11-20T03:46:07;98596.56;;;3.94;100.00
21240;BME280;10778;48.962;9.018;2022-11-20T03:48:33;98593.75;;;3.97;100.00
21240;BME280;10778;48.962;9.018;2022-11-20T03:51:13;98595.41;;;3.98;100.00
21240;BME280;10778;48.962;9.018;2022-11-20T03:53:40;98595.19;;;4.02;100.00
21240;BME280;10778;48.962;9.018;2022-11-20T03:56:08;98593.22;;;4.05;100.00
21240;BME280;10778;48.962;9.018;2022-11-20T03:58:36;98595.81;;;4.05;100.00
21240;BME280;10778;48.962;9.018;2022-11-20T04:01:14;98594.91;;;3.93;100.00
21240;BME280;10778;48.962;9.018;2022-11-20T04:03:41;98596.66;;;3.93;100.00
21240;BME280;10778;48.962;9.018;2022-11-20T04:06:11;98601.88;;;3.93;100.00
21240;BME280;10778;48.962;9.018;2022-11-20T04:08:38;98600.97;;;3.94;100.00
21240;BME280;10778;48.962;9.018;2022-11-20T04:11:18;98600.75;;;3.97;100.00
21240;BME280;10778;48.962;9.018;2022-11-20T04:13:50;98600.75;;;3.97;100.00
21240;BME280;10778;48.962;9.018;2022-11-20T04:16:17;98594.59;;;3.98;100.00
21240;BME280;10778;48.962;9.018;2022-11-20T04:18:43;98596.97;;;4.01;100.00
21240;BME280;10778;48.962;9.018;2022-11-20T04:21:10;98595.00;;;4.05;100.00
21240;BME280;10778;48.962;9.018;2022-11-20T04:23:37;98595.00;;;4.05;100.00
21240;BME280;10778;48.962;9.018;2022-11-20T04:26:09;98589.13;;;4.14;100.00
21240;BME280;10778;48.962;9.018;2022-11-20T04:28:35;98590.13;;;4.24;100.00
21240;BME280;10778;48.962;9.018;2022-11-20T04:31:10;98590.94;;;4.25;100.00
21240;BME280;10778;48.962;9.018;2022-11-20T04:33:36;98586.34;;;4.29;100.00
21240;BME280;10778;48.962;9.018;2022-11-20T04:36:07;98583.19;;;4.36;100.00
21240;BME280;10778;48.962;9.018;2022-11-20T04:38:33;98585.75;;;4.49;100.00
21240;BME280;10778;48.962;9.018;2022-11-20T04:41:00;98580.53;;;4.49;100.00
21240;BME280;10778;48.962;9.018;2022-11-20T04:43:27;98579.16;;;4.57;100.00
21240;BME280;10778;48.962;9.018;2022-11-20T04:45:54;98576.81;;;4.65;100.00
21240;BME280;10778;48.962;9.018;2022-11-20T04:48:21;98576.25;;;4.73;100.00
21240;BME280;10778;48.962;9.018;2022-11-20T04:50:47;98578.75;;;4.74;100.00
21240;BME280;10778;48.962;9.018;2022-11-20T04:53:14;98576.72;;;4.78;100.00
21240;BME280;10778;48.962;9.018;2022-11-20T04:55:40;98582.31;;;4.84;100.00
21240;BME280;10778;48.962;9.018;2022-11-20T04:58:07;98578.16;;;4.82;100.00
21240;BME280;10778;48.962;9.018;2022-11-20T05:00:33;98566.91;;;4.81;100.00
21240;BME280;10778;48.962;9.018;2022-11-20T05:02:59;98571.44;;;4.91;100.00
21240;BME280;10778;48.962;9.018;2022-11-20T05:05:25;98570.03;;;4.98;100.00
21240;BME280;10778;48.962;9.018;2022-11-20T05:07:51;98575.84;;;5.02;100.00
21240;BME280;10778;48.962;9.018;2022-11-20T05:10:17;98572.75;;;4.96;100.00
21240;BME280;10778;48.962;9.018;2022-11-20T05:12:43;98573.72;;;5.07;100.00
21240;BME280;10778;48.962;9.018;2022-11-20T05:15:09;98572.28;;;5.03;100.00
21240;BME280;10778;48.962;9.018;2022-11-20T05:17:35;98571.22;;;4.94;100.00
21240;BME280;10778;48.962;9.018;2022-11-20T05:20:01;98576.19;;;4.97;100.00
21240;BME280;10778;48.962;9.018;2022-11-20T05:22:27;98572.03;;;4.94;100.00
21240;BME280;10778;48.962;9.018;2022-11-20T05:24:53;98570.03;;;4.98;100.00
21240;BME280;10778;48.962;9.018;2022-11-20T05:27:19;98574.06;;;5.02;100.00
21240;BME280;10778;48.962;9.018;2022-11-20T05:29:45;98577.84;;;4.98;100.00
21240;BME280;10778;48.962;9.018;2022-11-20T05:32:11;98568.03;;;5.02;100.00
21240;BME280;10778;48.962;9.018;2022-11-20T05:34:37;98564.56;;;5.01;100.00
21240;BME280;10778;48.962;9.018;2022-11-20T05:37:03;98569.06;;;4.99;100.00
21240;BME280;10778;48.962;9.018;2022-11-20T05:39:29;98577.97;;;4.96;100.00
21240;BME280;10778;48.962;9.018;2022-11-20T05:41:56;98574.03;;;4.91;100.00
21240;BME280;10778;48.962;9.018;2022-11-20T05:44:40;98569.66;;;4.91;100.00
21240;BME280;10778;48.962;9.018;2022-11-20T05:47:06;98570.38;;;4.93;100.00
21240;BME280;10778;48.962;9.018;2022-11-20T05:49:32;98567.88;;;4.92;100.00
21240;BME280;10778;48.962;9.018;2022-11-20T05:51:58;98567.03;;;4.91;100.00
21240;BME280;10778;48.962;9.018;2022-11-20T05:54:24;98572.38;;;4.90;100.00
21240;BME280;10778;48.962;9.018;2022-11-20T05:56:50;98576.84;;;4.88;100.00
21240;BME280;10778;48.962;9.018;2022-11-20T05:59:16;98572.38;;;4.90;100.00
21240;BME280;10778;48.962;9.018;2022-11-20T06:01:42;98572.38;;;4.90;100.00
21240;BME280;10778;48.962;9.018;2022-11-20T06:04:08;98578.44;;;5.02;100.00
21240;BME280;10778;48.962;9.018;2022-11-20T06:06:34;98571.06;;;4.95;100.00
21240;BME280;10778;48.962;9.018;2022-11-20T06:09:00;98567.41;;;4.98;100.00
21240;BME280;10778;48.962;9.018;2022-11-20T06:11:26;98568.13;;;5.00;100.00
21240;BME280;10778;48.962;9.018;2022-11-20T06:13:52;98570.97;;;4.97;100.00
21240;BME280;10778;48.962;9.018;2022-11-20T06:16:19;98560.16;;;4.90;100.00
21240;BME280;10778;48.962;9.018;2022-11-20T06:18:46;98561.81;;;4.91;100.00
21240;BME280;10778;48.962;9.018;2022-11-20T06:21:22;98562.78;;;4.90;100.00
21240;BME280;10778;48.962;9.018;2022-11-20T06:23:50;98559.22;;;4.91;100.00
21240;BME280;10778;48.962;9.018;2022-11-20T06:26:21;98566.09;;;4.92;100.00
21240;BME280;10778;48.962;9.018;2022-11-20T06:28:48;98570.16;;;4.96;100.00
21240;BME280;10778;48.962;9.018;2022-11-20T06:31:16;98571.00;;;5.08;100.00
21240;BME280;10778;48.962;9.018;2022-11-20T06:33:43;98567.69;;;5.06;100.00
21240;BME280;10778;48.962;9.018;2022-11-20T06:36:11;98566.03;;;5.05;100.00
21240;BME280;10778;48.962;9.018;2022-11-20T06:38:38;98564.22;;;5.06;100.00
21240;BME280;10778;48.962;9.018;2022-11-20T06:41:25;98564.94;;;5.08;100.00
21240;BME280;10778;48.962;9.018;2022-11-20T06:43:51;98563.75;;;5.12;100.00
21240;BME280;10778;48.962;9.018;2022-11-20T06:46:18;98569.72;;;5.14;100.00
21240;BME280;10778;48.962;9.018;2022-11-20T06:48:45;98565.31;;;5.15;100.00
21240;BME280;10778;48.962;9.018;2022-11-20T06:51:12;98575.06;;;5.24;100.00
21240;BME280;10778;48.962;9.018;2022-11-20T06:53:38;98565.19;;;5.27;100.00
21240;BME280;10778;48.962;9.018;2022-11-20T06:56:05;98570.91;;;5.33;100.00
21240;BME280;10778;48.962;9.018;2022-11-20T06:58:32;98563.91;;;5.33;100.00
21240;BME280;10778;48.962;9.018;2022-11-20T07:01:00;98574.47;;;5.32;100.00
21240;BME280;10778;48.962;9.018;2022-11-20T07:03:27;98577.06;;;5.32;100.00
21240;BME280;10778;48.962;9.018;2022-11-20T07:05:57;98578.34;;;5.37;100.00
21240;BME280;10778;48.962;9.018;2022-11-20T07:08:24;98589.03;;;5.34;100.00
21240;BME280;10778;48.962;9.018;2022-11-20T07:10:50;98590.69;;;5.35;100.00
21240;BME280;10778;48.962;9.018;2022-11-20T07:13:16;98592.00;;;5.30;100.00
21240;BME280;10778;48.962;9.018;2022-11-20T07:15:42;98600.69;;;5.41;100.00
21240;BME280;10778;48.962;9.018;2022-11-20T07:18:08;98598.66;;;5.34;100.00
21240;BME280;10778;48.962;9.018;2022-11-20T07:20:34;98600.91;;;5.27;100.00
21240;BME280;10778;48.962;9.018;2022-11-20T07:23:00;98596.72;;;5.24;100.00
21240;BME280;10778;48.962;9.018;2022-11-20T07:25:27;98600.06;;;5.15;100.00
21240;BME280;10778;48.962;9.018;2022-11-20T07:28:00;98600.06;;;5.15;100.00
21240;BME280;10778;48.962;9.018;2022-11-20T07:30:27;98606.47;;;5.22;100.00
21240;BME280;10778;48.962;9.018;2022-11-20T07:32:55;98599.69;;;5.20;100.00
21240;BME280;10778;48.962;9.018;2022-11-20T07:35:22;98600.19;;;5.25;100.00
21240;BME280;10778;48.962;9.018;2022-11-20T07:37:49;98606.56;;;5.21;100.00
21240;BME280;10778;48.962;9.018;2022-11-20T07:40:16;98603.84;;;5.22;100.00
21240;BME280;10778;48.962;9.018;2022-11-20T07:45:16;98598.41;;;5.25;100.00
21240;BME280;10778;48.962;9.018;2022-11-20T07:47:42;98604.13;;;5.31;100.00
21240;BME280;10778;48.962;9.018;2022-11-20T07:50:09;98602.06;;;5.34;100.00
21240;BME280;10778;48.962;9.018;2022-11-20T07:52:35;98599.97;;;5.39;100.00
21240;BME280;10778;48.962;9.018;2022-11-20T07:55:01;98599.22;;;5.37;100.00
21240;BME280;10778;48.962;9.018;2022-11-20T07:57:27;98601.84;;;5.37;100.00
21240;BME280;10778;48.962;9.018;2022-11-20T07:59:53;98602.59;;;5.39;100.00
21240;BME280;10778;48.962;9.018;2022-11-20T08:02:19;98599.03;;;5.40;100.00
21240;BME280;10778;48.962;9.018;2022-11-20T08:04:45;98599.16;;;5.50;100.00
21240;BME280;10778;48.962;9.018;2022-11-20T08:07:11;98603.88;;;5.45;100.00
21240;BME280;10778;48.962;9.018;2022-11-20T08:09:37;98605.78;;;5.54;100.00
21240;BME280;10778;48.962;9.018;2022-11-20T08:12:03;98607.78;;;5.51;100.00
21240;BME280;10778;48.962;9.018;2022-11-20T08:14:47;98614.66;;;5.52;100.00
21240;BME280;10778;48.962;9.018;2022-11-20T08:17:13;98615.03;;;5.59;100.00
21240;BME280;10778;48.962;9.018;2022-11-20T08:19:39;98615.50;;;5.52;100.00
21240;BME280;10778;48.962;9.018;2022-11-20T08:22:05;98615.88;;;5.59;100.00
21240;BME280;10778;48.962;9.018;2022-11-20T08:24:31;98616.09;;;5.56;100.00
21240;BME280;10778;48.962;9.018;2022-11-20T08:26:58;98615.38;;;5.54;100.00
21240;BME280;10778;48.962;9.018;2022-11-20T08:29:27;98623.69;;;5.48;100.00
21240;BME280;10778;48.962;9.018;2022-11-20T08:31:53;98624.16;;;5.41;100.00
21240;BME280;10778;48.962;9.018;2022-11-20T08:34:19;98624.41;;;5.84;100.00
21240;BME280;10778;48.962;9.018;2022-11-20T08:36:45;98630.91;;;5.78;100.00
21240;BME280;10778;48.962;9.018;2022-11-20T08:39:12;98630.19;;;5.99;100.00
21240;BME280;10778;48.962;9.018;2022-11-20T08:41:38;98622.28;;;6.56;100.00
21240;BME280;10778;48.962;9.018;2022-11-20T08:44:06;98625.13;;;6.09;100.00
21240;BME280;10778;48.962;9.018;2022-11-20T08:46:35;98637.00;;;6.13;100.00
21240;BME280;10778;48.962;9.018;2022-11-20T08:49:07;98638.66;;;6.03;100.00
21240;BME280;10778;48.962;9.018;2022-11-20T08:51:34;98636.84;;;6.26;100.00
21240;BME280;10778;48.962;9.018;2022-11-20T08:54:00;98632.91;;;6.43;100.00
21240;BME280;10778;48.962;9.018;2022-11-20T08:56:27;98639.78;;;6.44;100.00
21240;BME280;10778;48.962;9.018;2022-11-20T08:58:53;98648.25;;;6.25;100.00
21240;BME280;10778;48.962;9.018;2022-11-20T09:01:20;98638.91;;;6.11;100.00
21240;BME280;10778;48.962;9.018;2022-11-20T09:03:46;98645.47;;;6.38;100.00
21240;BME280;10778;48.962;9.018;2022-11-20T09:06:13;98639.00;;;6.21;100.00
21240;BME280;10778;48.962;9.018;2022-11-20T09:08:39;98643.38;;;6.20;100.00
21240;BME280;10778;48.962;9.018;2022-11-20T09:11:06;98648.50;;;6.22;100.00
21240;BME280;10778;48.962;9.018;2022-11-20T09:13:34;98651.94;;;6.00;100.00
21240;BME280;10778;48.962;9.018;2022-11-20T09:16:03;98649.66;;;5.95;100.00
21240;BME280;10778;48.962;9.018;2022-11-20T09:18:30;98650.63;;;5.82;100.00
21240;BME280;10778;48.962;9.018;2022-11-20T09:21:04;98650.75;;;5.81;100.00
21240;BME280;10778;48.962;9.018;2022-11-20T09:23:32;98650.75;;;5.81;100.00
21240;BME280;10778;48.962;9.018;2022-11-20T09:26:04;98650.72;;;5.69;100.00
21240;BME280;10778;48.962;9.018;2022-11-20T09:28:31;98660.72;;;5.76;100.00
21240;BME280;10778;48.962;9.018;2022-11-20T09:30:58;98654.56;;;5.77;100.00
21240;BME280;10778;48.962;9.018;2022-11-20T09:33:24;98663.56;;;5.84;100.00
21240;BME280;10778;48.962;9.018;2022-11-20T09:35:50;98657.13;;;5.88;100.00
21240;BME280;10778;48.962;9.018;2022-11-20T09:38:16;98660.97;;;5.95;100.00
21240;BME280;10778;48.962;9.018;2022-11-20T09:40:55;98667.38;;;6.03;100.00
21240;BME280;10778;48.962;9.018;2022-11-20T09:49:07;98660.25;;;6.05;100.00
21240;BME280;10778;48.962;9.018;2022-11-20T09:51:57;98661.09;;;6.05;100.00
21240;BME280;10778;48.962;9.018;2022-11-20T09:54:34;98662.63;;;5.96;100.00
21240;BME280;10778;48.962;9.018;2022-11-20T09:57:11;98671.50;;;5.94;100.00
21240;BME280;10778;48.962;9.018;2022-11-20T09:59:38;98669.25;;;5.89;100.00
21240;BME280;10778;48.962;9.018;2022-11-20T10:02:29;98675.78;;;5.83;100.00
21240;BME280;10778;48.962;9.018;2022-11-20T10:05:18;98673.41;;;5.80;100.00
21240;BME280;10778;48.962;9.018;2022-11-20T10:07:53;98671.97;;;5.76;100.00
21240;BME280;10778;48.962;9.018;2022-11-20T10:10:30;98662.38;;;5.77;100.00
21240;BME280;10778;48.962;9.018;2022-11-20T10:13:20;98656.44;;;5.86;100.00
21240;BME280;10778;48.962;9.018;2022-11-20T10:16:15;98665.34;;;5.95;100.00
21240;BME280;10778;48.962;9.018;2022-11-20T10:30:03;98661.56;;;5.88;100.00
21240;BME280;10778;48.962;9.018;2022-11-20T10:32:37;98660.13;;;5.83;100.00
21240;BME280;10778;48.962;9.018;2022-11-20T10:37:49;98665.47;;;5.93;100.00
21240;BME280;10778;48.962;9.018;2022-11-20T10:40:35;98664.16;;;5.88;100.00
21240;BME280;10778;48.962;9.018;2022-11-20T10:43:14;98664.97;;;5.88;100.00
21240;BME280;10778;48.962;9.018;2022-11-20T10:46:01;98668.44;;;5.89;100.00
21240;BME280;10778;48.962;9.018;2022-11-20T10:48:31;98666.78;;;5.88;100.00
21240;BME280;10778;48.962;9.018;2022-11-20T10:51:47;98662.50;;;5.87;100.00
21240;BME280;10778;48.962;9.018;2022-11-20T10:56:57;98671.53;;;5.82;100.00
21240;BME280;10778;48.962;9.018;2022-11-20T10:59:45;98660.13;;;5.83;100.00
21240;BME280;10778;48.962;9.018;2022-11-20T11:02:16;98660.97;;;5.95;100.00
21240;BME280;10778;48.962;9.018;2022-11-20T11:04:46;98662.38;;;5.88;100.00
21240;BME280;10778;48.962;9.018;2022-11-20T11:07:22;98655.84;;;5.94;100.00
21240;BME280;10778;48.962;9.018;2022-11-20T11:09:54;98650.91;;;6.02;100.00
21240;BME280;10778;48.962;9.018;2022-11-20T11:12:26;98654.78;;;6.19;100.00
21240;BME280;10778;48.962;9.018;2022-11-20T11:14:55;98651.91;;;6.34;100.00
21240;BME280;10778;48.962;9.018;2022-11-20T11:17:27;98641.34;;;6.68;100.00
21240;BME280;10778;48.962;9.018;2022-11-20T11:20:14;98634.66;;;7.60;100.00
21240;BME280;10778;48.962;9.018;2022-11-20T11:22:45;98621.06;;;8.58;100.00
21240;BME280;10778;48.962;9.018;2022-11-20T11:25:20;98614.84;;;8.89;96.67
21240;BME280;10778;48.962;9.018;2022-11-20T11:27:48;98595.34;;;8.81;94.32
21240;BME280;10778;48.962;9.018;2022-11-20T11:30:16;98600.47;;;8.83;94.97
21240;BME280;10778;48.962;9.018;2022-11-20T11:32:43;98601.03;;;8.67;94.88
21240;BME280;10778;48.962;9.018;2022-11-20T11:37:46;98601.63;;;9.28;89.89
21240;BME280;10778;48.962;9.018;2022-11-20T11:40:14;98595.84;;;9.34;89.37
21240;BME280;10778;48.962;9.018;2022-11-20T11:42:50;98580.47;;;8.72;91.97
21240;BME280;10778;48.962;9.018;2022-11-20T11:45:18;98590.38;;;8.39;90.65
21240;BME280;10778;48.962;9.018;2022-11-20T11:47:46;98585.03;;;8.50;88.54
21240;BME280;10778;48.962;9.018;2022-11-20T11:58:44;98592.38;;;7.34;91.81
21240;BME280;10778;48.962;9.018;2022-11-20T12:04:04;98590.75;;;7.43;94.41
21240;BME280;10778;48.962;9.018;2022-11-20T12:06:32;98597.59;;;7.55;91.80
21240;BME280;10778;48.962;9.018;2022-11-20T12:09:05;98584.16;;;7.79;91.67
21240;BME280;10778;48.962;9.018;2022-11-20T12:11:55;98583.06;;;7.72;89.83
21240;BME280;10778;48.962;9.018;2022-11-20T12:16:52;98579.97;;;8.18;87.93
21240;BME280;10778;48.962;9.018;2022-11-20T12:19:21;98574.66;;;7.78;89.05
21240;BME280;10778;48.962;9.018;2022-11-20T12:22:34;98578.59;;;7.63;89.93
21240;BME280;10778;48.962;9.018;2022-11-20T12:30:13;98568.41;;;7.60;89.59
21240;BME280;10778;48.962;9.018;2022-11-20T12:41:00;98560.84;;;8.86;81.67
21240;BME280;10778;48.962;9.018;2022-11-20T12:43:36;98558.84;;;9.18;82.39
21240;BME280;10778;48.962;9.018;2022-11-20T12:46:46;98555.50;;;8.58;80.13
21240;BME280;10778;48.962;9.018;2022-11-20T12:52:26;98557.22;;;7.99;84.95
21240;BME280;10778;48.962;9.018;2022-11-20T13:00:21;98574.75;;;7.36;85.77
21240;BME280;10778;48.962;9.018;2022-11-20T13:03:07;98579.81;;;7.28;85.87
21240;BME280;10778;48.962;9.018;2022-11-20T13:08:41;98572.00;;;7.06;87.63
21240;BME280;10778;48.962;9.018;2022-11-20T13:19:22;98567.03;;;7.03;83.92
21240;BME280;10778;48.962;9.018;2022-11-20T13:21:50;98567.03;;;7.03;84.57
21240;BME280;10778;48.962;9.018;2022-11-20T13:29:35;98555.84;;;7.01;86.31
21240;BME280;10778;48.962;9.018;2022-11-20T13:32:11;98559.22;;;7.13;85.08
21240;BME280;10778;48.962;9.018;2022-11-20T13:35:00;98554.84;;;7.14;86.28
21240;BME280;10778;48.962;9.018;2022-11-20T13:37:28;98550.94;;;7.08;87.42
21240;BME280;10778;48.962;9.018;2022-11-20T13:42:40;98554.94;;;7.12;90.20
21240;BME280;10778;48.962;9.018;2022-11-20T13:45:20;98545.44;;;7.11;90.92
21240;BME280;10778;48.962;9.018;2022-11-20T13:47:48;98531.47;;;7.01;89.36
21240;BME280;10778;48.962;9.018;2022-11-20T13:50:15;98540.41;;;7.19;90.61
21240;BME280;10778;48.962;9.018;2022-11-20T13:55:29;98534.25;;;7.30;88.77
21240;BME280;10778;48.962;9.018;2022-11-20T13:58:36;98541.53;;;7.26;87.85
21240;BME280;10778;48.962;9.018;2022-11-20T14:01:15;98529.94;;;7.19;88.24
21240;BME280;10778;48.962;9.018;2022-11-20T14:03:42;98531.06;;;7.26;88.04
21240;BME280;10778;48.962;9.018;2022-11-20T14:08:47;98530.88;;;7.18;86.06
21240;BME280;10778;48.962;9.018;2022-11-20T14:11:22;98533.56;;;7.28;84.81
21240;BME280;10778;48.962;9.018;2022-11-20T14:16:35;98529.41;;;7.25;83.31
21240;BME280;10778;48.962;9.018;2022-11-20T14:22:36;98520.88;;;7.23;81.45
21240;BME280;10778;48.962;9.018;2022-11-20T14:24:37;98530.06;;;7.18;82.44
21240;BME280;10778;48.962;9.018;2022-11-20T14:27:03;98532.69;;;7.18;81.30
21240;BME280;10778;48.962;9.018;2022-11-20T14:29:35;98520.94;;;7.12;80.81
21240;BME280;10778;48.962;9.018;2022-11-20T14:32:02;98533.84;;;7.04;79.42
21240;BME280;10778;48.962;9.018;2022-11-20T14:34:31;98524.63;;;7.09;79.92
21240;BME280;10778;48.962;9.018;2022-11-20T14:37:03;98521.63;;;7.14;79.20
21240;BME280;10778;48.962;9.018;2022-11-20T14:39:33;98517.56;;;7.21;78.94
21240;BME280;10778;48.962;9.018;2022-11-20T14:42:00;98516.03;;;7.19;78.93
21240;BME280;10778;48.962;9.018;2022-11-20T14:44:28;98513.13;;;7.22;79.74
21240;BME280;10778;48.962;9.018;2022-11-20T14:46:55;98509.78;;;7.10;80.01
21240;BME280;10778;48.962;9.018;2022-11-20T14:49:23;98491.88;;;7.05;79.92
21240;BME280;10778;48.962;9.018;2022-11-20T14:51:59;98500.34;;;6.97;80.86
21240;BME280;10778;48.962;9.018;2022-11-20T14:54:25;98495.50;;;6.93;81.22